sensor_id;sensor_type;location;lat;lon;timestamp;P1;durP1;ratioP1;P2;durP2;ratioP2
19495;SDS011;9888;48.606;9.630;2023-07-31T00:00:13;1099.33;;;999.90;;
19495;SDS011;9888;48.606;9.630;2023-07-31T00:02:42;1088.97;;;999.90;;
19495;SDS011;9888;48.606;9.630;2023-07-31T00:05:11;1106.80;;;999.90;;
19495;SDS011;9888;48.606;9.630;2023-07-31T00:07:59;1080.07;;;997.17;;
19495;SDS011;9888;48.606;9.630;2023-07-31T00:10:38;1085.40;;;999.80;;
19495;SDS011;9888;48.606;9.630;2023-07-31T00:13:07;1105.40;;;999.90;;
19495;SDS011;9888;48.606;9.630;2023-07-31T00:18:34;1100.90;;;999.90;;
19495;SDS011;9888;48.606;9.630;2023-07-31T00:21:04;1093.53;;;999.90;;
19495;SDS011;9888;48.606;9.630;2023-07-31T00:23:33;1084.87;;;999.90;;
19495;SDS011;9888;48.606;9.630;2023-07-31T00:26:05;1102.03;;;999.90;;
19495;SDS011;9888;48.606;9.630;2023-07-31T00:28:33;1102.30;;;999.90;;
19495;SDS011;9888;48.606;9.630;2023-07-31T00:33:50;1086.10;;;999.90;;
19495;SDS011;9888;48.606;9.630;2023-07-31T00:36:17;1106.93;;;999.90;;
19495;SDS011;9888;48.606;9.630;2023-07-31T00:38:45;1104.63;;;999.90;;
19495;SDS011;9888;48.606;9.630;2023-07-31T00:41:13;1102.83;;;999.90;;
19495;SDS011;9888;48.606;9.630;2023-07-31T00:43:40;1067.17;;;985.90;;
19495;SDS011;9888;48.606;9.630;2023-07-31T00:46:08;1079.90;;;997.37;;
19495;SDS011;9888;48.606;9.630;2023-07-31T00:48:39;1079.93;;;996.43;;
19495;SDS011;9888;48.606;9.630;2023-07-31T00:51:07;1090.63;;;999.90;;
19495;SDS011;9888;48.606;9.630;2023-07-31T00:53:35;1086.07;;;999.30;;
19495;SDS011;9888;48.606;9.630;2023-07-31T00:56:03;1088.00;;;999.90;;
19495;SDS011;9888;48.606;9.630;2023-07-31T00:58:32;1094.97;;;999.90;;
19495;SDS011;9888;48.606;9.630;2023-07-31T01:01:01;1072.20;;;989.27;;
19495;SDS011;9888;48.606;9.630;2023-07-31T01:03:30;1084.97;;;999.90;;
19495;SDS011;9888;48.606;9.630;2023-07-31T01:08:58;1072.20;;;991.97;;
19495;SDS011;9888;48.606;9.630;2023-07-31T01:12:05;1071.27;;;990.93;;
19495;SDS011;9888;48.606;9.630;2023-07-31T01:14:39;1054.57;;;974.10;;
19495;SDS011;9888;48.606;9.630;2023-07-31T01:20:28;1042.80;;;965.80;;
19495;SDS011;9888;48.606;9.630;2023-07-31T01:26:09;1064.87;;;985.00;;
19495;SDS011;9888;48.606;9.630;2023-07-31T01:28:44;1050.50;;;971.43;;
19495;SDS011;9888;48.606;9.630;2023-07-31T01:34:38;1050.73;;;972.20;;
19495;SDS011;9888;48.606;9.630;2023-07-31T01:37:08;1048.77;;;971.50;;
19495;SDS011;9888;48.606;9.630;2023-07-31T01:39:37;1059.30;;;979.63;;
19495;SDS011;9888;48.606;9.630;2023-07-31T01:42:04;1037.43;;;960.27;;
19495;SDS011;9888;48.606;9.630;2023-07-31T01:44:34;1060.33;;;979.43;;
19495;SDS011;9888;48.606;9.630;2023-07-31T01:47:25;1068.47;;;988.97;;
19495;SDS011;9888;48.606;9.630;2023-07-31T01:49:54;1041.10;;;963.10;;
19495;SDS011;9888;48.606;9.630;2023-07-31T01:52:24;1069.30;;;988.03;;
19495;SDS011;9888;48.606;9.630;2023-07-31T01:54:52;1067.63;;;988.07;;
19495;SDS011;9888;48.606;9.630;2023-07-31T01:57:20;1060.37;;;979.23;;
19495;SDS011;9888;48.606;9.630;2023-07-31T02:00:05;1052.40;;;974.17;;
19495;SDS011;9888;48.606;9.630;2023-07-31T02:02:34;1045.00;;;967.40;;
19495;SDS011;9888;48.606;9.630;2023-07-31T02:05:07;1070.67;;;990.50;;
19495;SDS011;9888;48.606;9.630;2023-07-31T02:07:35;1068.77;;;988.33;;
19495;SDS011;9888;48.606;9.630;2023-07-31T02:10:03;1059.50;;;980.33;;
19495;SDS011;9888;48.606;9.630;2023-07-31T02:12:31;1057.57;;;976.67;;
19495;SDS011;9888;48.606;9.630;2023-07-31T02:18:23;1034.03;;;957.93;;
19495;SDS011;9888;48.606;9.630;2023-07-31T02:21:01;1066.10;;;987.60;;
19495;SDS011;9888;48.606;9.630;2023-07-31T02:23:29;1056.63;;;977.17;;
19495;SDS011;9888;48.606;9.630;2023-07-31T02:25:57;1070.90;;;990.10;;
19495;SDS011;9888;48.606;9.630;2023-07-31T02:28:25;1071.23;;;991.20;;
19495;SDS011;9888;48.606;9.630;2023-07-31T02:30:54;1051.57;;;972.73;;
19495;SDS011;9888;48.606;9.630;2023-07-31T02:33:22;1054.43;;;976.33;;
19495;SDS011;9888;48.606;9.630;2023-07-31T02:35:50;1055.10;;;976.43;;
19495;SDS011;9888;48.606;9.630;2023-07-31T02:41:41;1043.77;;;967.80;;
19495;SDS011;9888;48.606;9.630;2023-07-31T02:44:10;1030.40;;;954.63;;
19495;SDS011;9888;48.606;9.630;2023-07-31T02:46:40;1049.83;;;971.57;;
19495;SDS011;9888;48.606;9.630;2023-07-31T02:49:07;1038.90;;;961.37;;
19495;SDS011;9888;48.606;9.630;2023-07-31T02:51:36;1045.17;;;968.07;;
19495;SDS011;9888;48.606;9.630;2023-07-31T02:57:25;1028.90;;;954.60;;
19495;SDS011;9888;48.606;9.630;2023-07-31T03:00:24;1029.00;;;953.77;;
19495;SDS011;9888;48.606;9.630;2023-07-31T03:02:51;1046.73;;;969.97;;
19495;SDS011;9888;48.606;9.630;2023-07-31T03:05:20;1036.20;;;960.67;;
19495;SDS011;9888;48.606;9.630;2023-07-31T03:07:48;1054.70;;;976.97;;
19495;SDS011;9888;48.606;9.630;2023-07-31T03:10:15;1044.37;;;966.70;;
19495;SDS011;9888;48.606;9.630;2023-07-31T03:12:46;1065.83;;;986.87;;
19495;SDS011;9888;48.606;9.630;2023-07-31T03:15:15;1077.60;;;997.50;;
19495;SDS011;9888;48.606;9.630;2023-07-31T03:17:42;1043.93;;;966.77;;
19495;SDS011;9888;48.606;9.630;2023-07-31T03:20:09;1056.80;;;978.20;;
19495;SDS011;9888;48.606;9.630;2023-07-31T03:22:38;1036.27;;;959.43;;
19495;SDS011;9888;48.606;9.630;2023-07-31T03:25:08;1041.00;;;966.07;;
19495;SDS011;9888;48.606;9.630;2023-07-31T03:27:36;1029.27;;;954.80;;
19495;SDS011;9888;48.606;9.630;2023-07-31T03:30:04;1037.60;;;961.80;;
19495;SDS011;9888;48.606;9.630;2023-07-31T03:35:52;1037.60;;;962.70;;
19495;SDS011;9888;48.606;9.630;2023-07-31T03:38:19;1045.43;;;967.77;;
19495;SDS011;9888;48.606;9.630;2023-07-31T03:41:00;1049.47;;;972.57;;
19495;SDS011;9888;48.606;9.630;2023-07-31T03:43:28;1046.03;;;967.73;;
19495;SDS011;9888;48.606;9.630;2023-07-31T03:45:56;1042.53;;;964.77;;
19495;SDS011;9888;48.606;9.630;2023-07-31T03:48:23;1065.93;;;986.93;;
19495;SDS011;9888;48.606;9.630;2023-07-31T03:50:52;1044.03;;;966.77;;
19495;SDS011;9888;48.606;9.630;2023-07-31T03:53:23;1070.20;;;990.10;;
19495;SDS011;9888;48.606;9.630;2023-07-31T03:55:51;1048.73;;;970.07;;
19495;SDS011;9888;48.606;9.630;2023-07-31T03:58:20;1051.53;;;974.07;;
19495;SDS011;9888;48.606;9.630;2023-07-31T04:00:48;1039.63;;;963.37;;
19495;SDS011;9888;48.606;9.630;2023-07-31T04:03:16;1038.47;;;961.40;;
19495;SDS011;9888;48.606;9.630;2023-07-31T04:05:43;1028.43;;;953.53;;
19495;SDS011;9888;48.606;9.630;2023-07-31T04:08:16;1042.60;;;965.43;;
19495;SDS011;9888;48.606;9.630;2023-07-31T04:10:46;1043.43;;;966.90;;
19495;SDS011;9888;48.606;9.630;2023-07-31T04:13:14;1048.40;;;970.50;;
19495;SDS011;9888;48.606;9.630;2023-07-31T04:15:47;1035.57;;;960.27;;
19495;SDS011;9888;48.606;9.630;2023-07-31T04:18:19;1047.70;;;968.80;;
19495;SDS011;9888;48.606;9.630;2023-07-31T04:20:47;1045.50;;;967.63;;
19495;SDS011;9888;48.606;9.630;2023-07-31T04:23:14;1058.83;;;980.63;;
19495;SDS011;9888;48.606;9.630;2023-07-31T04:25:42;1046.70;;;969.57;;
19495;SDS011;9888;48.606;9.630;2023-07-31T04:28:16;1051.80;;;974.13;;
19495;SDS011;9888;48.606;9.630;2023-07-31T04:30:44;1033.37;;;957.40;;
19495;SDS011;9888;48.606;9.630;2023-07-31T04:33:11;1137.83;;;999.90;;
19495;SDS011;9888;48.606;9.630;2023-07-31T04:35:38;1154.27;;;999.90;;
19495;SDS011;9888;48.606;9.630;2023-07-31T04:38:07;1152.13;;;999.90;;
19495;SDS011;9888;48.606;9.630;2023-07-31T04:40:35;1145.93;;;999.90;;
19495;SDS011;9888;48.606;9.630;2023-07-31T04:43:02;1153.93;;;999.90;;
19495;SDS011;9888;48.606;9.630;2023-07-31T04:45:29;1163.37;;;999.90;;
19495;SDS011;9888;48.606;9.630;2023-07-31T04:47:57;1122.50;;;999.90;;
19495;SDS011;9888;48.606;9.630;2023-07-31T04:50:27;1141.50;;;999.90;;
19495;SDS011;9888;48.606;9.630;2023-07-31T04:52:57;1143.20;;;999.90;;
19495;SDS011;9888;48.606;9.630;2023-07-31T04:55:24;1108.97;;;999.90;;
19495;SDS011;9888;48.606;9.630;2023-07-31T04:57:51;1091.73;;;999.07;;
19495;SDS011;9888;48.606;9.630;2023-07-31T05:00:23;1067.60;;;973.80;;
19495;SDS011;9888;48.606;9.630;2023-07-31T05:05:56;1108.87;;;999.90;;
19495;SDS011;9888;48.606;9.630;2023-07-31T22:14:07;1148.87;;;999.90;;
19495;SDS011;9888;48.606;9.630;2023-07-31T22:16:35;1153.50;;;999.90;;
19495;SDS011;9888;48.606;9.630;2023-07-31T22:19:09;1154.10;;;999.90;;
19495;SDS011;9888;48.606;9.630;2023-07-31T22:21:37;1155.00;;;999.90;;
19495;SDS011;9888;48.606;9.630;2023-07-31T22:24:09;1173.03;;;999.90;;
19495;SDS011;9888;48.606;9.630;2023-07-31T22:29:31;1166.97;;;999.90;;
19495;SDS011;9888;48.606;9.630;2023-07-31T22:31:59;1173.33;;;999.90;;
19495;SDS011;9888;48.606;9.630;2023-07-31T22:34:33;1192.43;;;999.90;;
19495;SDS011;9888;48.606;9.630;2023-07-31T22:37:04;1177.87;;;999.90;;
19495;SDS011;9888;48.606;9.630;2023-07-31T22:39:32;1193.00;;;999.90;;
19495;SDS011;9888;48.606;9.630;2023-07-31T22:42:01;1165.97;;;999.90;;
19495;SDS011;9888;48.606;9.630;2023-07-31T22:44:28;1189.10;;;999.90;;
19495;SDS011;9888;48.606;9.630;2023-07-31T22:47:07;1176.07;;;999.90;;
19495;SDS011;9888;48.606;9.630;2023-07-31T22:49:34;1148.37;;;999.90;;
19495;SDS011;9888;48.606;9.630;2023-07-31T22:52:03;1194.77;;;999.90;;
19495;SDS011;9888;48.606;9.630;2023-07-31T22:54:33;1174.37;;;999.90;;
19495;SDS011;9888;48.606;9.630;2023-07-31T22:57:05;1175.50;;;999.90;;
19495;SDS011;9888;48.606;9.630;2023-07-31T23:02:36;1171.13;;;999.90;;
19495;SDS011;9888;48.606;9.630;2023-07-31T23:05:07;1179.97;;;999.90;;
19495;SDS011;9888;48.606;9.630;2023-07-31T23:07:37;1185.80;;;999.90;;
19495;SDS011;9888;48.606;9.630;2023-07-31T23:10:04;1149.63;;;999.90;;
19495;SDS011;9888;48.606;9.630;2023-07-31T23:12:33;1175.57;;;999.90;;
19495;SDS011;9888;48.606;9.630;2023-07-31T23:18:24;1191.07;;;999.90;;
19495;SDS011;9888;48.606;9.630;2023-07-31T23:20:53;1190.63;;;999.90;;
19495;SDS011;9888;48.606;9.630;2023-07-31T23:26:46;1176.43;;;999.90;;
19495;SDS011;9888;48.606;9.630;2023-07-31T23:29:17;1156.97;;;999.90;;
19495;SDS011;9888;48.606;9.630;2023-07-31T23:31:45;1135.03;;;999.90;;
19495;SDS011;9888;48.606;9.630;2023-07-31T23:34:13;1100.47;;;999.90;;
19495;SDS011;9888;48.606;9.630;2023-07-31T23:36:42;1118.03;;;999.90;;
19495;SDS011;9888;48.606;9.630;2023-07-31T23:39:12;1153.33;;;999.90;;
19495;SDS011;9888;48.606;9.630;2023-07-31T23:45:13;1142.37;;;999.90;;
19495;SDS011;9888;48.606;9.630;2023-07-31T23:47:46;1140.13;;;999.90;;
19495;SDS011;9888;48.606;9.630;2023-07-31T23:53:37;1105.03;;;999.90;;
19495;SDS011;9888;48.606;9.630;2023-07-31T23:56:05;1168.10;;;999.90;;
19495;SDS011;9888;48.606;9.630;2023-07-31T23:58:35;1152.73;;;999.90;;
